sensor_id;sensor_type;location;lat;lon;timestamp;pressure;altitude;pressure_sealevel;temperature;humidity
967;BME280;56108;48.730;9.304;2023-01-29T00:01:51;98676.44;;;-0.06;100.00
967;BME280;56108;48.730;9.304;2023-01-29T00:04:00;98674.75;;;-0.10;100.00
967;BME280;56108;48.730;9.304;2023-01-29T00:06:11;98674.03;;;-0.26;100.00
967;BME280;56108;48.730;9.304;2023-01-29T00:08:19;98678.44;;;-0.31;100.00
967;BME280;56108;48.730;9.304;2023-01-29T00:10:27;98673.22;;;-0.34;100.00
967;BME280;56108;48.730;9.304;2023-01-29T00:12:35;98669.78;;;-0.42;100.00
967;BME280;56108;48.730;9.304;2023-01-29T00:14:43;98672.31;;;-0.32;100.00
967;BME280;56108;48.730;9.304;2023-01-29T00:16:51;98667.97;;;-0.31;100.00
967;BME280;56108;48.730;9.304;2023-01-29T00:19:00;98677.63;;;-0.42;100.00
967;BME280;56108;48.730;9.304;2023-01-29T00:21:13;98674.09;;;-0.37;100.00
967;BME280;56108;48.730;9.304;2023-01-29T00:23:21;98679.41;;;-0.44;100.00
967;BME280;56108;48.730;9.304;2023-01-29T00:25:30;98680.25;;;-0.42;100.00
967;BME280;56108;48.730;9.304;2023-01-29T00:27:38;98682.13;;;-0.57;100.00
967;BME280;56108;48.730;9.304;2023-01-29T00:29:47;98676.88;;;-0.52;100.00
967;BME280;56108;48.730;9.304;2023-01-29T00:32:15;98675.97;;;-0.49;100.00
967;BME280;56108;48.730;9.304;2023-01-29T00:34:24;98672.56;;;-0.61;100.00
967;BME280;56108;48.730;9.304;2023-01-29T00:36:35;98676.97;;;-0.66;100.00
967;BME280;56108;48.730;9.304;2023-01-29T00:38:43;98660.38;;;-0.62;100.00
967;BME280;56108;48.730;9.304;2023-01-29T00:41:04;98663.72;;;-0.44;100.00
967;BME280;56108;48.730;9.304;2023-01-29T00:43:25;98666.31;;;-0.41;100.00
967;BME280;56108;48.730;9.304;2023-01-29T00:45:45;98670.69;;;-0.43;100.00
967;BME280;56108;48.730;9.304;2023-01-29T00:47:53;98676.69;;;-0.32;100.00
967;BME280;56108;48.730;9.304;2023-01-29T00:50:03;98667.09;;;-0.33;100.00
967;BME280;56108;48.730;9.304;2023-01-29T00:52:14;98668.94;;;-0.43;100.00
967;BME280;56108;48.730;9.304;2023-01-29T00:54:31;98671.53;;;-0.43;100.00
967;BME280;56108;48.730;9.304;2023-01-29T00:56:39;98675.75;;;-0.27;100.00
967;BME280;56108;48.730;9.304;2023-01-29T00:58:47;98678.34;;;-0.22;100.00
967;BME280;56108;48.730;9.304;2023-01-29T01:00:55;98678.44;;;-0.34;100.00
967;BME280;56108;48.730;9.304;2023-01-29T01:03:05;98673.06;;;-0.17;100.00
967;BME280;56108;48.730;9.304;2023-01-29T01:05:11;98660.97;;;-0.32;100.00
967;BME280;56108;48.730;9.304;2023-01-29T01:07:24;98669.63;;;-0.22;100.00
967;BME280;56108;48.730;9.304;2023-01-29T01:09:34;98665.22;;;-0.17;100.00
967;BME280;56108;48.730;9.304;2023-01-29T01:11:54;98664.63;;;-0.48;100.00
967;BME280;56108;48.730;9.304;2023-01-29T01:14:02;98669.88;;;-0.50;100.00
967;BME280;56108;48.730;9.304;2023-01-29T01:16:12;98668.00;;;-0.37;100.00
967;BME280;56108;48.730;9.304;2023-01-29T01:18:20;98675.03;;;-0.42;100.00
967;BME280;56108;48.730;9.304;2023-01-29T01:20:30;98670.69;;;-0.45;100.00
967;BME280;56108;48.730;9.304;2023-01-29T01:22:42;98659.31;;;-0.39;100.00
967;BME280;56108;48.730;9.304;2023-01-29T01:24:49;98661.13;;;-0.47;100.00
967;BME280;56108;48.730;9.304;2023-01-29T01:26:58;98659.34;;;-0.41;100.00
967;BME280;56108;48.730;9.304;2023-01-29T01:29:06;98661.03;;;-0.35;100.00
967;BME280;56108;48.730;9.304;2023-01-29T01:31:14;98656.69;;;-0.36;100.00
967;BME280;56108;48.730;9.304;2023-01-29T01:33:22;98660.97;;;-0.26;100.00
967;BME280;56108;48.730;9.304;2023-01-29T01:35:30;98657.44;;;-0.25;100.00
967;BME280;56108;48.730;9.304;2023-01-29T01:37:38;98661.72;;;-0.18;100.00
967;BME280;56108;48.730;9.304;2023-01-29T01:39:49;98655.56;;;-0.12;100.00
967;BME280;56108;48.730;9.304;2023-01-29T01:42:01;98656.59;;;-0.25;100.00
967;BME280;56108;48.730;9.304;2023-01-29T01:46:46;98661.06;;;-0.40;100.00
967;BME280;56108;48.730;9.304;2023-01-29T01:48:59;98662.13;;;-0.61;100.00
967;BME280;56108;48.730;9.304;2023-01-29T01:51:08;98654.16;;;-0.48;100.00
967;BME280;56108;48.730;9.304;2023-01-29T01:53:20;98651.50;;;-0.44;100.00
967;BME280;56108;48.730;9.304;2023-01-29T01:55:32;98649.81;;;-0.46;100.00
967;BME280;56108;48.730;9.304;2023-01-29T01:57:42;98640.88;;;-0.27;100.00
967;BME280;56108;48.730;9.304;2023-01-29T01:59:56;98645.28;;;-0.29;100.00
967;BME280;56108;48.730;9.304;2023-01-29T02:02:17;98650.56;;;-0.35;100.00
967;BME280;56108;48.730;9.304;2023-01-29T02:04:44;98655.63;;;-0.18;100.00
967;BME280;56108;48.730;9.304;2023-01-29T02:07:07;98656.53;;;-0.21;100.00
967;BME280;56108;48.730;9.304;2023-01-29T02:09:33;98660.03;;;-0.22;100.00
967;BME280;56108;48.730;9.304;2023-01-29T02:11:45;98652.16;;;-0.22;100.00
967;BME280;56108;48.730;9.304;2023-01-29T02:13:53;98649.66;;;-0.33;100.00
967;BME280;56108;48.730;9.304;2023-01-29T02:16:02;98657.69;;;-0.51;100.00
967;BME280;56108;48.730;9.304;2023-01-29T02:18:11;98655.09;;;-0.56;100.00
967;BME280;56108;48.730;9.304;2023-01-29T02:20:23;98670.69;;;-0.43;100.00
967;BME280;56108;48.730;9.304;2023-01-29T02:22:54;98674.88;;;-0.27;100.00
967;BME280;56108;48.730;9.304;2023-01-29T02:25:26;98671.34;;;-0.18;100.00
967;BME280;56108;48.730;9.304;2023-01-29T02:28:05;98662.91;;;-0.51;100.00
967;BME280;56108;48.730;9.304;2023-01-29T02:30:16;98667.25;;;-0.50;100.00
967;BME280;56108;48.730;9.304;2023-01-29T02:32:30;98667.31;;;-0.56;100.00
967;BME280;56108;48.730;9.304;2023-01-29T02:34:47;98669.84;;;-0.45;100.00
967;BME280;56108;48.730;9.304;2023-01-29T02:37:12;98663.84;;;-0.57;100.00
967;BME280;56108;48.730;9.304;2023-01-29T02:39:28;98671.66;;;-0.57;100.00
967;BME280;56108;48.730;9.304;2023-01-29T02:41:42;98665.59;;;-0.60;100.00
967;BME280;56108;48.730;9.304;2023-01-29T02:43:59;98672.56;;;-0.64;100.00
967;BME280;56108;48.730;9.304;2023-01-29T02:46:16;98670.81;;;-0.60;100.00
967;BME280;56108;48.730;9.304;2023-01-29T02:48:32;98673.34;;;-0.53;100.00
967;BME280;56108;48.730;9.304;2023-01-29T02:50:48;98663.84;;;-0.60;100.00
967;BME280;56108;48.730;9.304;2023-01-29T02:53:02;98666.44;;;-0.58;100.00
967;BME280;56108;48.730;9.304;2023-01-29T02:55:16;98662.06;;;-0.55;100.00
967;BME280;56108;48.730;9.304;2023-01-29T02:57:28;98666.38;;;-0.50;100.00
967;BME280;56108;48.730;9.304;2023-01-29T02:59:44;98669.78;;;-0.39;100.00
967;BME280;56108;48.730;9.304;2023-01-29T03:01:59;98673.22;;;-0.34;100.00
967;BME280;56108;48.730;9.304;2023-01-29T03:04:14;98674.94;;;-0.30;99.69
967;BME280;56108;48.730;9.304;2023-01-29T03:06:29;98668.00;;;-0.37;99.37
967;BME280;56108;48.730;9.304;2023-01-29T03:08:40;98666.34;;;-0.46;99.28
967;BME280;56108;48.730;9.304;2023-01-29T03:10:55;98667.25;;;-0.53;99.85
967;BME280;56108;48.730;9.304;2023-01-29T03:13:09;98669.06;;;-0.57;100.00
967;BME280;56108;48.730;9.304;2023-01-29T03:15:27;98656.88;;;-0.61;100.00
967;BME280;56108;48.730;9.304;2023-01-29T03:17:57;98656.03;;;-0.61;100.00
967;BME280;56108;48.730;9.304;2023-01-29T03:20:12;98661.03;;;-0.38;99.79
967;BME280;56108;48.730;9.304;2023-01-29T03:22:24;98656.00;;;-0.60;98.68
967;BME280;56108;48.730;9.304;2023-01-29T03:24:36;98653.34;;;-0.58;100.00
967;BME280;56108;48.730;9.304;2023-01-29T03:27:02;98658.59;;;-0.58;99.68
967;BME280;56108;48.730;9.304;2023-01-29T03:29:25;98660.38;;;-0.63;100.00
967;BME280;56108;48.730;9.304;2023-01-29T03:31:49;98652.53;;;-0.63;100.00
967;BME280;56108;48.730;9.304;2023-01-29T03:34:14;98655.22;;;-0.68;100.00
967;BME280;56108;48.730;9.304;2023-01-29T03:36:31;98658.63;;;-0.63;100.00
967;BME280;56108;48.730;9.304;2023-01-29T03:38:42;98659.59;;;-0.74;100.00
967;BME280;56108;48.730;9.304;2023-01-29T03:40:52;98662.25;;;-0.77;100.00
967;BME280;56108;48.730;9.304;2023-01-29T03:43:09;98661.38;;;-0.81;100.00
967;BME280;56108;48.730;9.304;2023-01-29T03:45:24;98662.91;;;-0.54;99.69
967;BME280;56108;48.730;9.304;2023-01-29T03:47:42;98666.44;;;-0.57;99.94
967;BME280;56108;48.730;9.304;2023-01-29T03:49:57;98662.97;;;-0.63;100.00
967;BME280;56108;48.730;9.304;2023-01-29T03:52:14;98657.78;;;-0.62;100.00
967;BME280;56108;48.730;9.304;2023-01-29T03:54:30;98657.84;;;-0.71;100.00
967;BME280;56108;48.730;9.304;2023-01-29T03:56:52;98659.59;;;-0.73;100.00
967;BME280;56108;48.730;9.304;2023-01-29T03:59:14;98656.97;;;-0.71;100.00
967;BME280;56108;48.730;9.304;2023-01-29T04:01:44;98658.69;;;-0.67;100.00
967;BME280;56108;48.730;9.304;2023-01-29T04:03:58;98659.59;;;-0.76;100.00
967;BME280;56108;48.730;9.304;2023-01-29T04:06:12;98658.75;;;-0.78;100.00
967;BME280;56108;48.730;9.304;2023-01-29T04:08:34;98663.06;;;-0.74;100.00
967;BME280;56108;48.730;9.304;2023-01-29T04:10:44;98666.63;;;-0.81;100.00
967;BME280;56108;48.730;9.304;2023-01-29T04:12:56;98651.91;;;-0.96;100.00
967;BME280;56108;48.730;9.304;2023-01-29T04:15:10;98666.63;;;-0.84;100.00
967;BME280;56108;48.730;9.304;2023-01-29T04:17:23;98665.78;;;-0.86;100.00
967;BME280;56108;48.730;9.304;2023-01-29T04:19:54;98662.31;;;-0.88;100.00
967;BME280;56108;48.730;9.304;2023-01-29T04:22:05;98663.19;;;-0.88;100.00
967;BME280;56108;48.730;9.304;2023-01-29T04:24:14;98661.22;;;-0.63;100.00
967;BME280;56108;48.730;9.304;2023-01-29T04:26:36;98669.88;;;-0.51;100.00
967;BME280;56108;48.730;9.304;2023-01-29T04:29:04;98662.84;;;-0.43;100.00
967;BME280;56108;48.730;9.304;2023-01-29T04:31:17;98668.97;;;-0.46;100.00
967;BME280;56108;48.730;9.304;2023-01-29T04:33:34;98675.97;;;-0.49;100.00
967;BME280;56108;48.730;9.304;2023-01-29T04:36:09;98671.66;;;-0.55;100.00
967;BME280;56108;48.730;9.304;2023-01-29T04:38:31;98662.00;;;-0.45;100.00
967;BME280;56108;48.730;9.304;2023-01-29T04:40:49;98666.31;;;-0.41;100.00
967;BME280;56108;48.730;9.304;2023-01-29T04:43:02;98663.81;;;-0.58;100.00
967;BME280;56108;48.730;9.304;2023-01-29T04:45:17;98671.66;;;-0.57;100.00
967;BME280;56108;48.730;9.304;2023-01-29T04:47:33;98669.94;;;-0.61;100.00
967;BME280;56108;48.730;9.304;2023-01-29T04:49:47;98666.47;;;-0.60;100.00
967;BME280;56108;48.730;9.304;2023-01-29T04:52:04;98662.06;;;-0.58;100.00
967;BME280;56108;48.730;9.304;2023-01-29T04:54:19;98660.25;;;-0.48;100.00
967;BME280;56108;48.730;9.304;2023-01-29T04:56:38;98654.25;;;-0.59;100.00
967;BME280;56108;48.730;9.304;2023-01-29T04:58:51;98665.56;;;-0.59;100.00
967;BME280;56108;48.730;9.304;2023-01-29T05:01:05;98658.59;;;-0.60;99.79
967;BME280;56108;48.730;9.304;2023-01-29T05:03:15;98664.72;;;-0.61;99.44
967;BME280;56108;48.730;9.304;2023-01-29T05:05:23;98667.38;;;-0.65;99.77
967;BME280;56108;48.730;9.304;2023-01-29T05:07:35;98658.56;;;-0.55;99.82
967;BME280;56108;48.730;9.304;2023-01-29T05:09:45;98672.63;;;-0.67;99.74
967;BME280;56108;48.730;9.304;2023-01-29T05:11:55;98665.66;;;-0.68;99.33
967;BME280;56108;48.730;9.304;2023-01-29T05:14:06;98662.97;;;-0.63;99.04
967;BME280;56108;48.730;9.304;2023-01-29T05:16:19;98667.38;;;-0.65;99.58
967;BME280;56108;48.730;9.304;2023-01-29T05:18:29;98664.72;;;-0.64;99.20
967;BME280;56108;48.730;9.304;2023-01-29T05:20:40;98672.56;;;-0.64;98.52
967;BME280;56108;48.730;9.304;2023-01-29T05:22:52;98666.53;;;-0.73;98.54
967;BME280;56108;48.730;9.304;2023-01-29T05:25:00;98674.38;;;-0.67;99.26
967;BME280;56108;48.730;9.304;2023-01-29T05:27:15;98662.19;;;-0.71;99.81
967;BME280;56108;48.730;9.304;2023-01-29T05:29:36;98662.25;;;-0.81;100.00
967;BME280;56108;48.730;9.304;2023-01-29T05:31:44;98655.34;;;-0.91;100.00
967;BME280;56108;48.730;9.304;2023-01-29T05:33:52;98672.81;;;-1.00;100.00
967;BME280;56108;48.730;9.304;2023-01-29T05:36:00;98674.59;;;-1.06;100.00
967;BME280;56108;48.730;9.304;2023-01-29T05:38:13;98674.63;;;-1.04;100.00
967;BME280;56108;48.730;9.304;2023-01-29T05:40:21;98672.00;;;-1.04;100.00
967;BME280;56108;48.730;9.304;2023-01-29T05:42:29;98667.50;;;-0.82;100.00
967;BME280;56108;48.730;9.304;2023-01-29T05:44:37;98664.00;;;-0.78;100.00
967;BME280;56108;48.730;9.304;2023-01-29T05:46:45;98672.63;;;-0.70;99.85
967;BME280;56108;48.730;9.304;2023-01-29T05:48:53;98663.94;;;-0.72;99.67
967;BME280;56108;48.730;9.304;2023-01-29T05:51:03;98663.06;;;-0.68;99.92
967;BME280;56108;48.730;9.304;2023-01-29T05:53:14;98666.59;;;-0.76;99.95
967;BME280;56108;48.730;9.304;2023-01-29T05:55:22;98664.84;;;-0.73;99.62
967;BME280;56108;48.730;9.304;2023-01-29T05:57:30;98649.16;;;-0.76;99.46
967;BME280;56108;48.730;9.304;2023-01-29T05:59:38;98635.28;;;-0.86;99.90
967;BME280;56108;48.730;9.304;2023-01-29T06:01:46;98635.25;;;-0.84;99.81
967;BME280;56108;48.730;9.304;2023-01-29T06:03:54;98627.47;;;-0.90;100.00
967;BME280;56108;48.730;9.304;2023-01-29T06:06:02;98627.31;;;-0.67;100.00
967;BME280;56108;48.730;9.304;2023-01-29T06:08:13;98622.91;;;-0.64;99.44
967;BME280;56108;48.730;9.304;2023-01-29T06:10:21;98622.03;;;-0.61;98.99
967;BME280;56108;48.730;9.304;2023-01-29T06:12:29;98630.78;;;-0.65;99.17
967;BME280;56108;48.730;9.304;2023-01-29T06:14:36;98635.28;;;-0.83;99.35
967;BME280;56108;48.730;9.304;2023-01-29T06:16:44;98630.91;;;-0.84;100.00
967;BME280;56108;48.730;9.304;2023-01-29T06:18:52;98632.59;;;-0.72;100.00
967;BME280;56108;48.730;9.304;2023-01-29T06:21:00;98625.63;;;-0.76;100.00
967;BME280;56108;48.730;9.304;2023-01-29T06:23:09;98633.47;;;-0.76;99.89
967;BME280;56108;48.730;9.304;2023-01-29T06:25:20;98643.13;;;-0.83;99.51
967;BME280;56108;48.730;9.304;2023-01-29T06:27:28;98643.09;;;-0.78;99.79
967;BME280;56108;48.730;9.304;2023-01-29T06:29:36;98650.94;;;-0.78;99.31
967;BME280;56108;48.730;9.304;2023-01-29T06:31:45;98646.63;;;-0.90;98.75
967;BME280;56108;48.730;9.304;2023-01-29T06:33:53;98651.03;;;-0.93;98.80
967;BME280;56108;48.730;9.304;2023-01-29T06:36:03;98653.66;;;-0.93;99.78
967;BME280;56108;48.730;9.304;2023-01-29T06:38:11;98660.47;;;-0.75;99.00
967;BME280;56108;48.730;9.304;2023-01-29T06:40:21;98654.34;;;-0.70;98.18
967;BME280;56108;48.730;9.304;2023-01-29T06:42:29;98655.22;;;-0.74;98.57
967;BME280;56108;48.730;9.304;2023-01-29T06:44:37;98655.28;;;-0.80;99.17
967;BME280;56108;48.730;9.304;2023-01-29T06:46:45;98653.63;;;-0.95;98.91
967;BME280;56108;48.730;9.304;2023-01-29T06:48:53;98668.50;;;-1.05;99.38
967;BME280;56108;48.730;9.304;2023-01-29T06:51:02;98670.22;;;-0.99;99.92
967;BME280;56108;48.730;9.304;2023-01-29T06:53:10;98656.31;;;-1.02;99.95
967;BME280;56108;48.730;9.304;2023-01-29T06:55:21;98658.84;;;-0.89;99.38
967;BME280;56108;48.730;9.304;2023-01-29T06:57:29;98657.09;;;-0.91;99.61
967;BME280;56108;48.730;9.304;2023-01-29T06:59:37;98658.88;;;-0.93;99.82
967;BME280;56108;48.730;9.304;2023-01-29T07:03:54;98664.91;;;-0.85;99.71
967;BME280;56108;48.730;9.304;2023-01-29T07:06:02;98663.16;;;-0.83;99.14
967;BME280;56108;48.730;9.304;2023-01-29T07:08:10;98673.63;;;-0.88;99.36
967;BME280;56108;48.730;9.304;2023-01-29T07:10:21;98685.81;;;-0.90;99.42
967;BME280;56108;48.730;9.304;2023-01-29T07:12:30;98671.06;;;-0.92;99.76
967;BME280;56108;48.730;9.304;2023-01-29T07:14:38;98677.06;;;-0.84;99.82
967;BME280;56108;48.730;9.304;2023-01-29T07:16:46;98677.09;;;-0.86;99.96
967;BME280;56108;48.730;9.304;2023-01-29T07:18:54;98671.75;;;-0.69;99.13
967;BME280;56108;48.730;9.304;2023-01-29T07:21:03;98665.59;;;-0.57;99.42
967;BME280;56108;48.730;9.304;2023-01-29T07:23:12;98676.13;;;-0.68;99.31
967;BME280;56108;48.730;9.304;2023-01-29T07:25:24;98676.91;;;-0.60;98.16
967;BME280;56108;48.730;9.304;2023-01-29T07:27:34;98677.81;;;-0.62;97.94
967;BME280;56108;48.730;9.304;2023-01-29T07:29:44;98677.00;;;-0.72;98.11
967;BME280;56108;48.730;9.304;2023-01-29T07:31:52;98681.28;;;-0.62;98.80
967;BME280;56108;48.730;9.304;2023-01-29T07:34:00;98684.69;;;-0.50;98.55
967;BME280;56108;48.730;9.304;2023-01-29T07:36:09;98683.84;;;-0.54;98.31
967;BME280;56108;48.730;9.304;2023-01-29T07:38:17;98685.56;;;-0.53;97.95
967;BME280;56108;48.730;9.304;2023-01-29T07:40:28;98685.53;;;-0.48;98.46
967;BME280;56108;48.730;9.304;2023-01-29T07:42:37;98693.44;;;-0.55;98.04
967;BME280;56108;48.730;9.304;2023-01-29T07:44:48;98698.81;;;-0.73;97.24
967;BME280;56108;48.730;9.304;2023-01-29T07:46:55;98694.28;;;-0.54;98.94
967;BME280;56108;48.730;9.304;2023-01-29T07:49:04;98693.22;;;-0.32;97.25
967;BME280;56108;48.730;9.304;2023-01-29T07:51:12;98702.75;;;-0.21;96.24
967;BME280;56108;48.730;9.304;2023-01-29T07:53:22;98698.44;;;-0.27;95.37
967;BME280;56108;48.730;9.304;2023-01-29T07:55:32;98699.38;;;-0.31;95.99
967;BME280;56108;48.730;9.304;2023-01-29T07:57:41;98707.19;;;-0.30;96.49
967;BME280;56108;48.730;9.304;2023-01-29T07:59:49;98704.50;;;-0.20;95.99
967;BME280;56108;48.730;9.304;2023-01-29T08:01:57;98706.19;;;-0.18;95.54
967;BME280;56108;48.730;9.304;2023-01-29T08:04:05;98713.25;;;-0.28;95.25
967;BME280;56108;48.730;9.304;2023-01-29T08:06:13;98714.88;;;-0.13;95.48
967;BME280;56108;48.730;9.304;2023-01-29T08:08:21;98713.16;;;-0.17;95.57
967;BME280;56108;48.730;9.304;2023-01-29T08:10:32;98711.44;;;-0.18;94.96
967;BME280;56108;48.730;9.304;2023-01-29T08:12:40;98711.44;;;-0.18;94.72
967;BME280;56108;48.730;9.304;2023-01-29T08:14:49;98710.56;;;-0.18;94.54
967;BME280;56108;48.730;9.304;2023-01-29T08:16:57;98698.31;;;-0.13;94.82
967;BME280;56108;48.730;9.304;2023-01-29T08:19:05;98706.97;;;-0.05;94.28
967;BME280;56108;48.730;9.304;2023-01-29T08:21:13;98706.97;;;-0.04;94.50
967;BME280;56108;48.730;9.304;2023-01-29T08:23:22;98699.94;;;0.00;94.04
967;BME280;56108;48.730;9.304;2023-01-29T08:25:33;98706.88;;;0.04;93.01
967;BME280;56108;48.730;9.304;2023-01-29T08:27:41;98711.28;;;0.01;91.89
967;BME280;56108;48.730;9.304;2023-01-29T08:29:49;98705.19;;;-0.03;93.54
967;BME280;56108;48.730;9.304;2023-01-29T08:31:57;98708.56;;;0.11;93.86
967;BME280;56108;48.730;9.304;2023-01-29T08:34:05;98725.03;;;0.19;92.60
967;BME280;56108;48.730;9.304;2023-01-29T08:36:13;98732.22;;;-0.01;93.12
967;BME280;56108;48.730;9.304;2023-01-29T08:38:21;98723.47;;;0.02;93.54
967;BME280;56108;48.730;9.304;2023-01-29T08:40:33;98725.06;;;0.21;92.87
967;BME280;56108;48.730;9.304;2023-01-29T08:42:42;98725.91;;;0.20;92.89
967;BME280;56108;48.730;9.304;2023-01-29T08:44:50;98730.22;;;0.27;92.51
967;BME280;56108;48.730;9.304;2023-01-29T08:46:58;98726.78;;;0.19;92.73
967;BME280;56108;48.730;9.304;2023-01-29T08:49:06;98722.47;;;0.16;93.05
967;BME280;56108;48.730;9.304;2023-01-29T08:51:14;98722.41;;;0.19;92.24
967;BME280;56108;48.730;9.304;2023-01-29T08:53:22;98734.44;;;0.39;92.37
967;BME280;56108;48.730;9.304;2023-01-29T08:55:30;98733.53;;;0.41;90.82
967;BME280;56108;48.730;9.304;2023-01-29T08:57:41;98739.53;;;0.54;90.32
967;BME280;56108;48.730;9.304;2023-01-29T08:59:49;98743.97;;;0.47;90.03
967;BME280;56108;48.730;9.304;2023-01-29T09:01:57;98746.72;;;0.34;90.05
967;BME280;56108;48.730;9.304;2023-01-29T09:04:05;98744.22;;;0.20;90.42
967;BME280;56108;48.730;9.304;2023-01-29T09:06:16;98743.38;;;0.19;91.34
967;BME280;56108;48.730;9.304;2023-01-29T09:08:24;98741.66;;;0.17;90.80
967;BME280;56108;48.730;9.304;2023-01-29T09:10:32;98744.13;;;0.31;90.72
967;BME280;56108;48.730;9.304;2023-01-29T09:12:43;98740.66;;;0.32;90.14
967;BME280;56108;48.730;9.304;2023-01-29T09:14:51;98745.69;;;0.48;89.87
967;BME280;56108;48.730;9.304;2023-01-29T09:16:59;98742.16;;;0.52;89.72
967;BME280;56108;48.730;9.304;2023-01-29T09:19:07;98745.53;;;0.62;89.02
967;BME280;56108;48.730;9.304;2023-01-29T09:21:15;98755.84;;;0.76;88.11
967;BME280;56108;48.730;9.304;2023-01-29T09:23:23;98747.28;;;0.63;88.18
967;BME280;56108;48.730;9.304;2023-01-29T09:25:31;98745.41;;;0.73;88.30
967;BME280;56108;48.730;9.304;2023-01-29T09:27:39;98744.31;;;0.92;87.56
967;BME280;56108;48.730;9.304;2023-01-29T09:29:50;98748.50;;;1.07;86.86
967;BME280;56108;48.730;9.304;2023-01-29T09:31:58;98742.31;;;1.11;85.35
967;BME280;56108;48.730;9.304;2023-01-29T09:34:07;98751.91;;;1.12;84.75
967;BME280;56108;48.730;9.304;2023-01-29T09:36:15;98751.03;;;1.13;85.46
967;BME280;56108;48.730;9.304;2023-01-29T09:38:23;98744.94;;;1.10;84.68
967;BME280;56108;48.730;9.304;2023-01-29T09:40:36;98746.72;;;1.08;85.20
967;BME280;56108;48.730;9.304;2023-01-29T09:42:52;98756.38;;;1.06;85.19
967;BME280;56108;48.730;9.304;2023-01-29T09:47:20;98750.94;;;1.21;85.22
967;BME280;56108;48.730;9.304;2023-01-29T09:49:34;98751.88;;;1.15;83.72
967;BME280;56108;48.730;9.304;2023-01-29T09:51:48;98749.03;;;1.32;81.57
967;BME280;56108;48.730;9.304;2023-01-29T09:54:07;98743.06;;;1.19;79.34
967;BME280;56108;48.730;9.304;2023-01-29T09:56:20;98736.25;;;1.08;79.58
967;BME280;56108;48.730;9.304;2023-01-29T09:58:34;98735.31;;;1.12;79.54
967;BME280;56108;48.730;9.304;2023-01-29T10:00:58;98729.22;;;1.10;80.02
967;BME280;56108;48.730;9.304;2023-01-29T10:03:32;98731.47;;;1.36;79.69
967;BME280;56108;48.730;9.304;2023-01-29T10:05:58;98724.34;;;1.47;78.08
967;BME280;56108;48.730;9.304;2023-01-29T10:08:46;98715.41;;;1.59;78.23
967;BME280;56108;48.730;9.304;2023-01-29T10:11:06;98706.38;;;1.76;77.91
967;BME280;56108;48.730;9.304;2023-01-29T10:13:26;98694.03;;;1.83;74.55
967;BME280;56108;48.730;9.304;2023-01-29T10:15:55;98698.41;;;1.81;75.22
967;BME280;56108;48.730;9.304;2023-01-29T10:20:51;98690.47;;;2.35;73.52
967;BME280;56108;48.730;9.304;2023-01-29T10:23:21;98689.38;;;1.97;73.43
967;BME280;56108;48.730;9.304;2023-01-29T10:25:31;98685.06;;;1.95;74.18
967;BME280;56108;48.730;9.304;2023-01-29T10:27:46;98680.13;;;1.78;74.72
967;BME280;56108;48.730;9.304;2023-01-29T10:29:55;98688.97;;;1.72;74.42
967;BME280;56108;48.730;9.304;2023-01-29T10:32:12;98690.44;;;1.87;73.57
967;BME280;56108;48.730;9.304;2023-01-29T10:34:26;98682.06;;;1.65;74.68
967;BME280;56108;48.730;9.304;2023-01-29T10:36:40;98689.38;;;1.97;76.99
967;BME280;56108;48.730;9.304;2023-01-29T10:38:50;98690.16;;;2.02;77.54
967;BME280;56108;48.730;9.304;2023-01-29T10:41:09;98691.00;;;2.06;75.79
967;BME280;56108;48.730;9.304;2023-01-29T10:43:29;98703.22;;;2.07;75.77
967;BME280;56108;48.730;9.304;2023-01-29T10:45:45;98704.78;;;2.17;74.07
967;BME280;56108;48.730;9.304;2023-01-29T10:48:13;98705.88;;;1.53;73.26
967;BME280;56108;48.730;9.304;2023-01-29T10:50:41;98696.31;;;2.01;75.59
967;BME280;56108;48.730;9.304;2023-01-29T10:53:08;98693.06;;;1.33;74.48
967;BME280;56108;48.730;9.304;2023-01-29T10:55:33;98679.38;;;1.70;77.46
967;BME280;56108;48.730;9.304;2023-01-29T10:57:54;98686.31;;;1.74;73.94
967;BME280;56108;48.730;9.304;2023-01-29T11:00:09;98680.13;;;1.76;75.43
967;BME280;56108;48.730;9.304;2023-01-29T11:02:20;98682.56;;;1.87;75.42
967;BME280;56108;48.730;9.304;2023-01-29T11:04:31;98681.06;;;2.22;76.66
967;BME280;56108;48.730;9.304;2023-01-29T11:06:41;98689.63;;;2.33;75.49
967;BME280;56108;48.730;9.304;2023-01-29T11:08:53;98691.13;;;2.45;74.04
967;BME280;56108;48.730;9.304;2023-01-29T11:11:07;98692.69;;;2.55;74.50
967;BME280;56108;48.730;9.304;2023-01-29T11:13:17;98700.00;;;2.41;72.58
967;BME280;56108;48.730;9.304;2023-01-29T11:15:29;98701.72;;;2.40;73.78
967;BME280;56108;48.730;9.304;2023-01-29T11:17:38;98692.00;;;2.47;73.20
967;BME280;56108;48.730;9.304;2023-01-29T11:19:51;98684.03;;;2.50;73.48
967;BME280;56108;48.730;9.304;2023-01-29T11:22:00;98682.94;;;2.61;72.59
967;BME280;56108;48.730;9.304;2023-01-29T11:24:12;98678.69;;;2.54;72.93
967;BME280;56108;48.730;9.304;2023-01-29T11:26:21;98681.56;;;2.42;73.16
967;BME280;56108;48.730;9.304;2023-01-29T11:28:37;98674.28;;;2.56;73.07
967;BME280;56108;48.730;9.304;2023-01-29T11:30:46;98674.38;;;2.52;73.33
967;BME280;56108;48.730;9.304;2023-01-29T11:33:05;98679.03;;;2.38;72.10
967;BME280;56108;48.730;9.304;2023-01-29T11:35:35;98664.50;;;2.63;74.12
967;BME280;56108;48.730;9.304;2023-01-29T11:37:44;98666.97;;;2.71;73.55
967;BME280;56108;48.730;9.304;2023-01-29T11:39:55;98665.78;;;2.85;71.40
967;BME280;56108;48.730;9.304;2023-01-29T11:42:04;98675.66;;;2.74;70.14
967;BME280;56108;48.730;9.304;2023-01-29T11:44:19;98663.34;;;2.76;71.25
967;BME280;56108;48.730;9.304;2023-01-29T11:46:27;98659.03;;;3.12;68.56
967;BME280;56108;48.730;9.304;2023-01-29T11:48:40;98650.91;;;3.23;68.73
967;BME280;56108;48.730;9.304;2023-01-29T11:50:56;98651.53;;;2.96;68.12
967;BME280;56108;48.730;9.304;2023-01-29T11:53:06;98653.00;;;2.69;67.36
967;BME280;56108;48.730;9.304;2023-01-29T11:55:31;98654.03;;;2.61;68.89
967;BME280;56108;48.730;9.304;2023-01-29T11:58:00;98653.84;;;2.69;69.08
967;BME280;56108;48.730;9.304;2023-01-29T12:00:18;98653.34;;;2.50;68.15
967;BME280;56108;48.730;9.304;2023-01-29T12:02:32;98648.81;;;2.58;69.11
967;BME280;56108;48.730;9.304;2023-01-29T12:04:44;98646.97;;;1.72;70.37
967;BME280;56108;48.730;9.304;2023-01-29T12:06:55;98643.78;;;2.03;71.67
967;BME280;56108;48.730;9.304;2023-01-29T12:09:09;98640.09;;;2.15;71.33
967;BME280;56108;48.730;9.304;2023-01-29T12:11:24;98631.13;;;2.25;70.97